Love Boat — OT3861 — position and weather

sailwx.info

Track history (hours):
 
Tides and Currents Weather Stations Pressure Air Temp Water Temp Dewpoint Dewpoint Depression Visibility Wind Speed Wind Dir Waves Ship Positions

Love Boat

Last reported at 2014-Oct-25 06:28 UTC. Time now 2014-Oct-25 14:33 UTC.
Position N 50°54' E 007°00'.

Length 110 m; draft 3 m.

Type: Ship. MMSI: 205386190.

Date/timePositionNaut miles runAvg speedWind from/ knotsBaromVisibWave heightAir tempDewpointWater temp
2014-Oct-25 06:28N 50°54' E 007°00'2 2.5
2014-Oct-25 05:32N 50°55' E 006°58'7 3.5
2014-Oct-25 03:27N 51°03' E 006°56'3 3.8
2014-Oct-25 02:33N 51°04' E 006°52'3 2.8
2014-Oct-25 01:33N 51°07' E 006°52'3 2.5
2014-Oct-25 00:33N 51°09' E 006°50'2 2.2
2014-Oct-24 23:33N 51°11' E 006°47'3 3.1
2014-Oct-24 22:33N 51°13' E 006°44'2 2.2
2014-Oct-24 21:33N 51°15' E 006°46'3 3.1
2014-Oct-24 20:33N 51°17' E 006°43'4 3.2
2014-Oct-24 19:16N 51°21' E 006°40'2 2.8
2014-Oct-24 18:33N 51°22' E 006°42'28 3.4
2014-Oct-24 10:18N 51°46' E 006°20'18 4.5
2014-Oct-24 06:19N 51°51' E 005°51'5 5.6
2014-Oct-24 05:29N 51°53' E 005°45'5 5.5
2014-Oct-24 04:33N 51°54' E 005°36'6 5.6
2014-Oct-24 03:33N 51°53' E 005°27'6 5.7
2014-Oct-24 02:33N 51°48' E 005°22'5 5.0
2014-Oct-24 01:33N 51°49' E 005°14'6 5.8
2014-Oct-24 00:33N 51°50' E 005°05'7 6.5
2014-Oct-23 23:33N 51°49' E 004°54'7 6.9
2014-Oct-23 22:33N 51°46' E 004°45'10 8.1
2014-Oct-23 21:21N 51°42' E 004°30'4 4.2
2014-Oct-23 20:26N 51°42' E 004°24'3 3.7
2014-Oct-23 19:33N 51°39' E 004°20'7 5.9
2014-Oct-23 18:23N 51°40' E 004°09'3 3.9
2014-Oct-23 17:33N 51°38' E 004°05'7 6.5
2014-Oct-23 16:33N 51°33' E 003°59'6 5.6
2014-Oct-23 15:33N 51°27' E 004°01'5 4.8
2014-Oct-23 14:33N 51°24' E 003°55'7 6.6
2014-Oct-23 13:33N 51°24' E 003°44'3 3.3
2014-Oct-23 12:33N 51°27' E 003°43'0 0.0
2014-Oct-23 11:33N 51°27' E 003°43'0 0.0
2014-Oct-23 10:33N 51°27' E 003°43'0 0.0
2014-Oct-23 09:33N 51°27' E 003°43'0 0.0
2014-Oct-23 08:33N 51°27' E 003°43'0 0.0
2014-Oct-23 07:33N 51°27' E 003°43'0 0.0
2014-Oct-23 06:33N 51°27' E 003°43'0 0.0
2014-Oct-23 05:33N 51°27' E 003°43'0 0.0
2014-Oct-23 04:33N 51°27' E 003°43'0 0.0
2014-Oct-23 03:33N 51°27' E 003°43'0 0.0
2014-Oct-23 02:33N 51°27' E 003°43'0 0.0
2014-Oct-23 01:33N 51°27' E 003°43'0 0.0
2014-Oct-23 00:33N 51°27' E 003°43'0 0.0
2014-Oct-22 23:34N 51°27' E 003°43'0 0.0
2014-Oct-22 22:33N 51°27' E 003°43'0 0.0
2014-Oct-22 21:33N 51°27' E 003°43'1 0.8
2014-Oct-22 20:33N 51°27' E 003°42'6 6.0
2014-Oct-22 19:33N 51°23' E 003°48'7 7.2
2014-Oct-22 18:33N 51°27' E 003°58'9 9.0
2014-Oct-22 17:33N 51°23' E 004°11'8 8.3
2014-Oct-22 16:33N 51°16' E 004°19'1 1.2
2014-Oct-22 15:32N 51°16' E 004°17'1 0.5
2014-Oct-22 14:32N 51°16' E 004°16'1 1.4
2014-Oct-22 13:33N 51°15' E 004°14'0 0.0
2014-Oct-22 12:33N 51°15' E 004°14'0 0.1
2014-Oct-22 11:33N 51°16' E 004°14'0 0.0
2014-Oct-22 10:33N 51°16' E 004°14'0 0.0
2014-Oct-22 09:33N 51°16' E 004°14'0 0.0
2014-Oct-22 08:25N 51°16' E 004°14'0 0.1
2014-Oct-22 07:33N 51°15' E 004°14'0 0.1
2014-Oct-22 06:31N 51°15' E 004°14'0 0.0
2014-Oct-22 05:33N 51°15' E 004°14'0 0.0
2014-Oct-22 04:34N 51°15' E 004°14'0 0.0
2014-Oct-22 03:33N 51°15' E 004°14'0 0.0
2014-Oct-22 02:29N 51°15' E 004°14'0 0.0
2014-Oct-22 01:33N 51°15' E 004°14'0 0.0
2014-Oct-22 00:33N 51°15' E 004°14'0 0.0
2014-Oct-21 21:31N 51°15' E 004°14'0 0.0
2014-Oct-21 20:27N 51°15' E 004°14'0 0.0
2014-Oct-21 19:31N 51°15' E 004°14'0 0.0
2014-Oct-21 18:33N 51°15' E 004°14'0 0.0
2014-Oct-21 17:32N 51°15' E 004°14'0 0.0
2014-Oct-21 16:33N 51°15' E 004°14'0 0.0
2014-Oct-21 15:32N 51°15' E 004°14'2 1.8
2014-Oct-21 14:30N 51°16' E 004°17'2 2.2
2014-Oct-21 13:34N 51°17' E 004°20'2 1.8
2014-Oct-21 12:34N 51°17' E 004°23'0 0.0
2014-Oct-21 11:33N 51°17' E 004°23'0 0.0
2014-Oct-21 10:33N 51°17' E 004°23'0 0.1
2014-Oct-21 09:33N 51°17' E 004°23'1 1.3
2014-Oct-21 08:34N 51°17' E 004°21'8 7.4
2014-Oct-21 07:28N 51°24' E 004°14'4 4.0
2014-Oct-21 06:34N 51°28' E 004°14'0 0.0
2014-Oct-21 05:34N 51°28' E 004°14'0 0.0
2014-Oct-21 04:34N 51°28' E 004°14'0 0.0
2014-Oct-21 03:34N 51°28' E 004°14'0 0.0
2014-Oct-21 02:33N 51°28' E 004°14'0 0.0
2014-Oct-21 01:34N 51°28' E 004°14'0 0.0
2014-Oct-21 00:33N 51°28' E 004°14'0 0.0
2014-Oct-20 23:33N 51°28' E 004°14'0 0.0
2014-Oct-20 22:33N 51°28' E 004°14'0 0.0
2014-Oct-20 21:33N 51°28' E 004°14'0 0.0
2014-Oct-20 20:33N 51°28' E 004°14'1 0.6
2014-Oct-20 19:34N 51°28' E 004°14'7 7.0
2014-Oct-20 18:33N 51°35' E 004°12'7 6.6
2014-Oct-20 17:30N 51°40' E 004°20'4 2.8
2014-Oct-20 16:09N 51°42' E 004°25'7 8.3
2014-Oct-20 15:18N 51°43' E 004°37'6 7.6
2014-Oct-20 14:33N 51°48' E 004°35'8 8.0
2014-Oct-20 13:33N 51°51' E 004°23'9 8.5
2014-Oct-20 12:33N 51°55' E 004°11'5 5.0
2014-Oct-20 11:33N 51°56' E 004°03'0 0.0
2014-Oct-20 10:33N 51°56' E 004°03'0 0.0
2014-Oct-20 09:33N 51°56' E 004°03'0 0.0
2014-Oct-20 08:33N 51°56' E 004°03'0 0.0
2014-Oct-20 07:33N 51°56' E 004°03'0 0.0
2014-Oct-20 06:33N 51°56' E 004°03'0 0.0
2014-Oct-20 05:33N 51°56' E 004°03'0 0.0
2014-Oct-20 04:33N 51°56' E 004°03'0 0.4
2014-Oct-20 03:33N 51°56' E 004°02'0 0.0
2014-Oct-20 02:33N 51°56' E 004°02'0 0.0
2014-Oct-20 01:33N 51°56' E 004°02'0 0.0
2014-Oct-20 00:33N 51°56' E 004°02'0 0.0
2014-Oct-19 23:33N 51°56' E 004°02'0 0.0
2014-Oct-19 22:33N 51°56' E 004°02'0 0.0
2014-Oct-19 21:33N 51°56' E 004°02'0 0.0
2014-Oct-19 20:33N 51°56' E 004°02'1 0.6
2014-Oct-19 19:33N 51°56' E 004°03'0 0.0
2014-Oct-19 18:33N 51°56' E 004°03'0 0.0
2014-Oct-19 17:33N 51°56' E 004°03'0 0.0
2014-Oct-19 16:33N 51°56' E 004°03'0 0.0
2014-Oct-19 15:33N 51°56' E 004°03'0 0.0
2014-Oct-19 14:33N 51°56' E 004°03'0 0.0
2014-Oct-19 13:33N 51°56' E 004°03'0 0.0
2014-Oct-19 12:33N 51°56' E 004°03'0 0.0
2014-Oct-19 11:33N 51°56' E 004°03'0 0.0
2014-Oct-19 10:33N 51°56' E 004°03'0 0.0
2014-Oct-19 09:33N 51°56' E 004°03'0 0.0
2014-Oct-19 08:33N 51°56' E 004°03'0 0.0
2014-Oct-19 07:33N 51°56' E 004°03'0 0.0
2014-Oct-19 06:33N 51°56' E 004°03'0 0.0
2014-Oct-19 05:33N 51°56' E 004°03'0 0.0
2014-Oct-19 04:33N 51°56' E 004°03'0 0.0
2014-Oct-19 03:33N 51°56' E 004°03'0 0.0
2014-Oct-19 02:33N 51°56' E 004°03'0 0.0
2014-Oct-19 01:33N 51°56' E 004°03'0 0.0
2014-Oct-19 00:33N 51°56' E 004°03'0 0.0
2014-Oct-18 23:33N 51°56' E 004°03'0 0.0
2014-Oct-18 22:33N 51°56' E 004°03'0 0.0
2014-Oct-18 21:33N 51°56' E 004°03'0 0.0
2014-Oct-18 20:33N 51°56' E 004°03'0 0.0
2014-Oct-18 19:33N 51°56' E 004°03'0 0.0
2014-Oct-18 18:33N 51°56' E 004°03'0 0.0
2014-Oct-18 17:33N 51°56' E 004°03'0 0.0
2014-Oct-18 16:33N 51°56' E 004°03'0 0.0
2014-Oct-18 15:33N 51°56' E 004°03'0 0.0
2014-Oct-18 14:33N 51°56' E 004°03'0 0.0
2014-Oct-18 13:33N 51°56' E 004°03'0 0.0
2014-Oct-18 12:33N 51°56' E 004°03'0 0.0
2014-Oct-18 11:33N 51°56' E 004°03'2 2.1
2014-Oct-18 10:33N 51°56' E 004°07'6 6.5
2014-Oct-18 09:33N 51°52' E 004°15'6 6.4
2014-Oct-18 08:33N 51°51' E 004°25'7 7.3
2014-Oct-18 07:33N 51°48' E 004°36'6 6.1
2014-Oct-18 06:33N 51°42' E 004°35'6 5.6
2014-Oct-18 05:30N 51°42' E 004°25'0 0.2
2014-Oct-18 04:31N 51°42' E 004°25'0 0.0
2014-Oct-18 03:33N 51°42' E 004°25'0 0.0
2014-Oct-18 02:25N 51°42' E 004°25'0 0.0
2014-Oct-18 01:32N 51°42' E 004°25'0 0.0
2014-Oct-18 00:33N 51°42' E 004°25'0 0.0
2014-Oct-17 23:33N 51°42' E 004°25'0 0.0
2014-Oct-17 22:32N 51°42' E 004°25'0 0.0
2014-Oct-17 21:32N 51°42' E 004°25'0 0.0
2014-Oct-17 20:32N 51°42' E 004°25'0 0.0
2014-Oct-17 19:33N 51°42' E 004°25'0 0.0
2014-Oct-17 18:32N 51°42' E 004°25'0 0.0
2014-Oct-17 17:33N 51°42' E 004°25'0 0.0
2014-Oct-17 16:33N 51°42' E 004°25'0 0.0
2014-Oct-17 15:33N 51°42' E 004°25'0 0.0
2014-Oct-17 14:32N 51°42' E 004°25'0 0.0
2014-Oct-17 13:31N 51°42' E 004°25'0 0.0
2014-Oct-17 12:33N 51°42' E 004°25'0 0.0
2014-Oct-17 11:33N 51°42' E 004°25'1 0.7
2014-Oct-17 10:25N 51°41' E 004°24'5 5.1
2014-Oct-17 09:31N 51°39' E 004°18'5 5.1
2014-Oct-17 08:33N 51°40' E 004°10'2 1.4
2014-Oct-17 07:19N 51°40' E 004°07'4 5.7
2014-Oct-17 06:33N 51°37' E 004°02'4 3.7
2014-Oct-17 05:33N 51°34' E 003°58'4 4.3
2014-Oct-17 04:33N 51°30' E 004°00'2 1.8
2014-Oct-17 03:33N 51°28' E 004°00'0 0.0
2014-Oct-17 02:33N 51°28' E 004°00'0 0.0
2014-Oct-17 01:33N 51°28' E 004°00'0 0.0
2014-Oct-17 00:33N 51°28' E 004°00'0 0.0
2014-Oct-16 23:33N 51°28' E 004°00'0 0.0
2014-Oct-16 22:33N 51°28' E 004°00'0 0.0
2014-Oct-16 21:33N 51°28' E 004°00'0 0.0
2014-Oct-16 20:33N 51°28' E 004°00'0 0.0
2014-Oct-16 19:33N 51°28' E 004°00'1 1.5
2014-Oct-16 18:33N 51°26' E 004°01'5 5.1
2014-Oct-16 17:29N 51°23' E 003°54'6 6.8
2014-Oct-16 16:33N 51°24' E 003°44'3 3.0
2014-Oct-16 15:33N 51°27' E 003°44'0 0.0
2014-Oct-16 14:33N 51°27' E 003°44'0 0.0
2014-Oct-16 13:33N 51°27' E 003°44'0 0.0
2014-Oct-16 12:33N 51°27' E 003°44'0 0.0
2014-Oct-16 11:33N 51°27' E 003°44'0 0.0
2014-Oct-16 10:33N 51°27' E 003°44'0 0.0
2014-Oct-16 09:33N 51°27' E 003°44'0 0.0
2014-Oct-16 08:33N 51°27' E 003°44'0 0.0
2014-Oct-16 07:33N 51°27' E 003°44'0 0.0
2014-Oct-16 06:33N 51°27' E 003°44'0 0.0
2014-Oct-16 05:33N 51°27' E 003°44'0 0.0
2014-Oct-16 04:33N 51°27' E 003°44'0 0.0
2014-Oct-16 03:33N 51°27' E 003°44'0 0.0
2014-Oct-16 02:33N 51°27' E 003°44'0 0.0
2014-Oct-16 01:33N 51°27' E 003°44'0 0.0
2014-Oct-16 00:33N 51°27' E 003°44'0 0.0
2014-Oct-15 23:33N 51°27' E 003°44'0 0.0
2014-Oct-15 22:33N 51°27' E 003°44'0 0.0
2014-Oct-15 21:33N 51°27' E 003°44'0 0.0
2014-Oct-15 20:33N 51°27' E 003°44'0 0.0
2014-Oct-15 19:33N 51°27' E 003°44'0 0.1
2014-Oct-15 18:33N 51°27' E 003°44'4 4.1
2014-Oct-15 17:33N 51°23' E 003°43'5 5.1
2014-Oct-15 16:34N 51°20' E 003°49'6 6.3
2014-Oct-15 15:33N 51°14' E 003°48'5 5.0
2014-Oct-15 14:33N 51°09' E 003°48'0 0.0
2014-Oct-15 13:33N 51°09' E 003°48'0 0.0
2014-Oct-15 12:34N 51°09' E 003°48'0 0.1
2014-Oct-15 11:34N 51°09' E 003°48'0 0.0
2014-Oct-15 10:33N 51°09' E 003°48'0 0.1
2014-Oct-15 09:33N 51°09' E 003°48'0 0.0
2014-Oct-15 08:21N 51°09' E 003°48'0 0.0
2014-Oct-15 07:29N 51°09' E 003°48'0 0.2
2014-Oct-15 06:33N 51°09' E 003°48'  
Track history (hours):
 
Tides and Currents Weather Stations Pressure Air Temp Water Temp Dewpoint Dewpoint Depression Visibility Wind Speed Wind Dir Waves Ship Positions

Love Boat

Last reported at 2014-Oct-25 06:28 UTC. Time now 2014-Oct-25 14:33 UTC.
Position N 50°54' E 007°00'.

Length 110 m; draft 3 m.

Type: Ship. MMSI: 205386190.

Date/timePositionNaut miles runAvg speedWind from/ knotsBaromVisibWave heightAir tempDewpointWater temp
2014-Oct-25 06:28N 50°54' E 007°00'2 2.5
2014-Oct-25 05:32N 50°55' E 006°58'7 3.5
2014-Oct-25 03:27N 51°03' E 006°56'3 3.8
2014-Oct-25 02:33N 51°04' E 006°52'3 2.8
2014-Oct-25 01:33N 51°07' E 006°52'3 2.5
2014-Oct-25 00:33N 51°09' E 006°50'2 2.2
2014-Oct-24 23:33N 51°11' E 006°47'3 3.1
2014-Oct-24 22:33N 51°13' E 006°44'2 2.2
2014-Oct-24 21:33N 51°15' E 006°46'3 3.1
2014-Oct-24 20:33N 51°17' E 006°43'4 3.2
2014-Oct-24 19:16N 51°21' E 006°40'2 2.8
2014-Oct-24 18:33N 51°22' E 006°42'28 3.4
2014-Oct-24 10:18N 51°46' E 006°20'18 4.5
2014-Oct-24 06:19N 51°51' E 005°51'5 5.6
2014-Oct-24 05:29N 51°53' E 005°45'5 5.5
2014-Oct-24 04:33N 51°54' E 005°36'6 5.6
2014-Oct-24 03:33N 51°53' E 005°27'6 5.7
2014-Oct-24 02:33N 51°48' E 005°22'5 5.0
2014-Oct-24 01:33N 51°49' E 005°14'6 5.8
2014-Oct-24 00:33N 51°50' E 005°05'7 6.5
2014-Oct-23 23:33N 51°49' E 004°54'7 6.9
2014-Oct-23 22:33N 51°46' E 004°45'10 8.1
2014-Oct-23 21:21N 51°42' E 004°30'4 4.2
2014-Oct-23 20:26N 51°42' E 004°24'3 3.7
2014-Oct-23 19:33N 51°39' E 004°20'7 5.9
2014-Oct-23 18:23N 51°40' E 004°09'3 3.9
2014-Oct-23 17:33N 51°38' E 004°05'7 6.5
2014-Oct-23 16:33N 51°33' E 003°59'6 5.6
2014-Oct-23 15:33N 51°27' E 004°01'5 4.8
2014-Oct-23 14:33N 51°24' E 003°55'7 6.6
2014-Oct-23 13:33N 51°24' E 003°44'3 3.3
2014-Oct-23 12:33N 51°27' E 003°43'0 0.0
2014-Oct-23 11:33N 51°27' E 003°43'0 0.0
2014-Oct-23 10:33N 51°27' E 003°43'0 0.0
2014-Oct-23 09:33N 51°27' E 003°43'0 0.0
2014-Oct-23 08:33N 51°27' E 003°43'0 0.0
2014-Oct-23 07:33N 51°27' E 003°43'0 0.0
2014-Oct-23 06:33N 51°27' E 003°43'0 0.0
2014-Oct-23 05:33N 51°27' E 003°43'0 0.0
2014-Oct-23 04:33N 51°27' E 003°43'0 0.0
2014-Oct-23 03:33N 51°27' E 003°43'0 0.0
2014-Oct-23 02:33N 51°27' E 003°43'0 0.0
2014-Oct-23 01:33N 51°27' E 003°43'0 0.0
2014-Oct-23 00:33N 51°27' E 003°43'0 0.0
2014-Oct-22 23:34N 51°27' E 003°43'0 0.0
2014-Oct-22 22:33N 51°27' E 003°43'0 0.0
2014-Oct-22 21:33N 51°27' E 003°43'1 0.8
2014-Oct-22 20:33N 51°27' E 003°42'6 6.0
2014-Oct-22 19:33N 51°23' E 003°48'7 7.2
2014-Oct-22 18:33N 51°27' E 003°58'9 9.0
2014-Oct-22 17:33N 51°23' E 004°11'8 8.3
2014-Oct-22 16:33N 51°16' E 004°19'1 1.2
2014-Oct-22 15:32N 51°16' E 004°17'1 0.5
2014-Oct-22 14:32N 51°16' E 004°16'1 1.4
2014-Oct-22 13:33N 51°15' E 004°14'0 0.0
2014-Oct-22 12:33N 51°15' E 004°14'0 0.1
2014-Oct-22 11:33N 51°16' E 004°14'0 0.0
2014-Oct-22 10:33N 51°16' E 004°14'0 0.0
2014-Oct-22 09:33N 51°16' E 004°14'0 0.0
2014-Oct-22 08:25N 51°16' E 004°14'0 0.1
2014-Oct-22 07:33N 51°15' E 004°14'0 0.1
2014-Oct-22 06:31N 51°15' E 004°14'0 0.0
2014-Oct-22 05:33N 51°15' E 004°14'0 0.0
2014-Oct-22 04:34N 51°15' E 004°14'0 0.0
2014-Oct-22 03:33N 51°15' E 004°14'0 0.0
2014-Oct-22 02:29N 51°15' E 004°14'0 0.0
2014-Oct-22 01:33N 51°15' E 004°14'0 0.0
2014-Oct-22 00:33N 51°15' E 004°14'0 0.0
2014-Oct-21 21:31N 51°15' E 004°14'0 0.0
2014-Oct-21 20:27N 51°15' E 004°14'0 0.0
2014-Oct-21 19:31N 51°15' E 004°14'0 0.0
2014-Oct-21 18:33N 51°15' E 004°14'0 0.0
2014-Oct-21 17:32N 51°15' E 004°14'0 0.0
2014-Oct-21 16:33N 51°15' E 004°14'0 0.0
2014-Oct-21 15:32N 51°15' E 004°14'2 1.8
2014-Oct-21 14:30N 51°16' E 004°17'2 2.2
2014-Oct-21 13:34N 51°17' E 004°20'2 1.8
2014-Oct-21 12:34N 51°17' E 004°23'0 0.0
2014-Oct-21 11:33N 51°17' E 004°23'0 0.0
2014-Oct-21 10:33N 51°17' E 004°23'0 0.1
2014-Oct-21 09:33N 51°17' E 004°23'1 1.3
2014-Oct-21 08:34N 51°17' E 004°21'8 7.4
2014-Oct-21 07:28N 51°24' E 004°14'4 4.0
2014-Oct-21 06:34N 51°28' E 004°14'0 0.0
2014-Oct-21 05:34N 51°28' E 004°14'0 0.0
2014-Oct-21 04:34N 51°28' E 004°14'0 0.0
2014-Oct-21 03:34N 51°28' E 004°14'0 0.0
2014-Oct-21 02:33N 51°28' E 004°14'0 0.0
2014-Oct-21 01:34N 51°28' E 004°14'0 0.0
2014-Oct-21 00:33N 51°28' E 004°14'0 0.0
2014-Oct-20 23:33N 51°28' E 004°14'0 0.0
2014-Oct-20 22:33N 51°28' E 004°14'0 0.0
2014-Oct-20 21:33N 51°28' E 004°14'0 0.0
2014-Oct-20 20:33N 51°28' E 004°14'1 0.6
2014-Oct-20 19:34N 51°28' E 004°14'7 7.0
2014-Oct-20 18:33N 51°35' E 004°12'7 6.6
2014-Oct-20 17:30N 51°40' E 004°20'4 2.8
2014-Oct-20 16:09N 51°42' E 004°25'7 8.3
2014-Oct-20 15:18N 51°43' E 004°37'6 7.6
2014-Oct-20 14:33N 51°48' E 004°35'8 8.0
2014-Oct-20 13:33N 51°51' E 004°23'9 8.5
2014-Oct-20 12:33N 51°55' E 004°11'5 5.0
2014-Oct-20 11:33N 51°56' E 004°03'0 0.0
2014-Oct-20 10:33N 51°56' E 004°03'0 0.0
2014-Oct-20 09:33N 51°56' E 004°03'0 0.0
2014-Oct-20 08:33N 51°56' E 004°03'0 0.0
2014-Oct-20 07:33N 51°56' E 004°03'0 0.0
2014-Oct-20 06:33N 51°56' E 004°03'0 0.0
2014-Oct-20 05:33N 51°56' E 004°03'0 0.0
2014-Oct-20 04:33N 51°56' E 004°03'0 0.4
2014-Oct-20 03:33N 51°56' E 004°02'0 0.0
2014-Oct-20 02:33N 51°56' E 004°02'0 0.0
2014-Oct-20 01:33N 51°56' E 004°02'0 0.0
2014-Oct-20 00:33N 51°56' E 004°02'0 0.0
2014-Oct-19 23:33N 51°56' E 004°02'0 0.0
2014-Oct-19 22:33N 51°56' E 004°02'0 0.0
2014-Oct-19 21:33N 51°56' E 004°02'0 0.0
2014-Oct-19 20:33N 51°56' E 004°02'1 0.6
2014-Oct-19 19:33N 51°56' E 004°03'0 0.0
2014-Oct-19 18:33N 51°56' E 004°03'0 0.0
2014-Oct-19 17:33N 51°56' E 004°03'0 0.0
2014-Oct-19 16:33N 51°56' E 004°03'0 0.0
2014-Oct-19 15:33N 51°56' E 004°03'0 0.0
2014-Oct-19 14:33N 51°56' E 004°03'0 0.0
2014-Oct-19 13:33N 51°56' E 004°03'0 0.0
2014-Oct-19 12:33N 51°56' E 004°03'0 0.0
2014-Oct-19 11:33N 51°56' E 004°03'0 0.0
2014-Oct-19 10:33N 51°56' E 004°03'0 0.0
2014-Oct-19 09:33N 51°56' E 004°03'0 0.0
2014-Oct-19 08:33N 51°56' E 004°03'0 0.0
2014-Oct-19 07:33N 51°56' E 004°03'0 0.0
2014-Oct-19 06:33N 51°56' E 004°03'0 0.0
2014-Oct-19 05:33N 51°56' E 004°03'0 0.0
2014-Oct-19 04:33N 51°56' E 004°03'0 0.0
2014-Oct-19 03:33N 51°56' E 004°03'0 0.0
2014-Oct-19 02:33N 51°56' E 004°03'0 0.0
2014-Oct-19 01:33N 51°56' E 004°03'0 0.0
2014-Oct-19 00:33N 51°56' E 004°03'0 0.0
2014-Oct-18 23:33N 51°56' E 004°03'0 0.0
2014-Oct-18 22:33N 51°56' E 004°03'0 0.0
2014-Oct-18 21:33N 51°56' E 004°03'0 0.0
2014-Oct-18 20:33N 51°56' E 004°03'0 0.0
2014-Oct-18 19:33N 51°56' E 004°03'0 0.0
2014-Oct-18 18:33N 51°56' E 004°03'0 0.0
2014-Oct-18 17:33N 51°56' E 004°03'0 0.0
2014-Oct-18 16:33N 51°56' E 004°03'0 0.0
2014-Oct-18 15:33N 51°56' E 004°03'0 0.0
2014-Oct-18 14:33N 51°56' E 004°03'0 0.0
2014-Oct-18 13:33N 51°56' E 004°03'0 0.0
2014-Oct-18 12:33N 51°56' E 004°03'0 0.0
2014-Oct-18 11:33N 51°56' E 004°03'2 2.1
2014-Oct-18 10:33N 51°56' E 004°07'6 6.5
2014-Oct-18 09:33N 51°52' E 004°15'6 6.4
2014-Oct-18 08:33N 51°51' E 004°25'7 7.3
2014-Oct-18 07:33N 51°48' E 004°36'6 6.1
2014-Oct-18 06:33N 51°42' E 004°35'6 5.6
2014-Oct-18 05:30N 51°42' E 004°25'0 0.2
2014-Oct-18 04:31N 51°42' E 004°25'0 0.0
2014-Oct-18 03:33N 51°42' E 004°25'0 0.0
2014-Oct-18 02:25N 51°42' E 004°25'0 0.0
2014-Oct-18 01:32N 51°42' E 004°25'0 0.0
2014-Oct-18 00:33N 51°42' E 004°25'0 0.0
2014-Oct-17 23:33N 51°42' E 004°25'0 0.0
2014-Oct-17 22:32N 51°42' E 004°25'0 0.0
2014-Oct-17 21:32N 51°42' E 004°25'0 0.0
2014-Oct-17 20:32N 51°42' E 004°25'0 0.0
2014-Oct-17 19:33N 51°42' E 004°25'0 0.0
2014-Oct-17 18:32N 51°42' E 004°25'0 0.0
2014-Oct-17 17:33N 51°42' E 004°25'0 0.0
2014-Oct-17 16:33N 51°42' E 004°25'0 0.0
2014-Oct-17 15:33N 51°42' E 004°25'0 0.0
2014-Oct-17 14:32N 51°42' E 004°25'0 0.0
2014-Oct-17 13:31N 51°42' E 004°25'0 0.0
2014-Oct-17 12:33N 51°42' E 004°25'0 0.0
2014-Oct-17 11:33N 51°42' E 004°25'1 0.7
2014-Oct-17 10:25N 51°41' E 004°24'5 5.1
2014-Oct-17 09:31N 51°39' E 004°18'5 5.1
2014-Oct-17 08:33N 51°40' E 004°10'2 1.4
2014-Oct-17 07:19N 51°40' E 004°07'4 5.7
2014-Oct-17 06:33N 51°37' E 004°02'4 3.7
2014-Oct-17 05:33N 51°34' E 003°58'4 4.3
2014-Oct-17 04:33N 51°30' E 004°00'2 1.8
2014-Oct-17 03:33N 51°28' E 004°00'0 0.0
2014-Oct-17 02:33N 51°28' E 004°00'0 0.0
2014-Oct-17 01:33N 51°28' E 004°00'0 0.0
2014-Oct-17 00:33N 51°28' E 004°00'0 0.0
2014-Oct-16 23:33N 51°28' E 004°00'0 0.0
2014-Oct-16 22:33N 51°28' E 004°00'0 0.0
2014-Oct-16 21:33N 51°28' E 004°00'0 0.0
2014-Oct-16 20:33N 51°28' E 004°00'0 0.0
2014-Oct-16 19:33N 51°28' E 004°00'1 1.5
2014-Oct-16 18:33N 51°26' E 004°01'5 5.1
2014-Oct-16 17:29N 51°23' E 003°54'6 6.8
2014-Oct-16 16:33N 51°24' E 003°44'3 3.0
2014-Oct-16 15:33N 51°27' E 003°44'0 0.0
2014-Oct-16 14:33N 51°27' E 003°44'0 0.0
2014-Oct-16 13:33N 51°27' E 003°44'0 0.0
2014-Oct-16 12:33N 51°27' E 003°44'0 0.0
2014-Oct-16 11:33N 51°27' E 003°44'0 0.0
2014-Oct-16 10:33N 51°27' E 003°44'0 0.0
2014-Oct-16 09:33N 51°27' E 003°44'0 0.0
2014-Oct-16 08:33N 51°27' E 003°44'0 0.0
2014-Oct-16 07:33N 51°27' E 003°44'0 0.0
2014-Oct-16 06:33N 51°27' E 003°44'0 0.0
2014-Oct-16 05:33N 51°27' E 003°44'0 0.0
2014-Oct-16 04:33N 51°27' E 003°44'0 0.0
2014-Oct-16 03:33N 51°27' E 003°44'0 0.0
2014-Oct-16 02:33N 51°27' E 003°44'0 0.0
2014-Oct-16 01:33N 51°27' E 003°44'0 0.0
2014-Oct-16 00:33N 51°27' E 003°44'0 0.0
2014-Oct-15 23:33N 51°27' E 003°44'0 0.0
2014-Oct-15 22:33N 51°27' E 003°44'0 0.0
2014-Oct-15 21:33N 51°27' E 003°44'0 0.0
2014-Oct-15 20:33N 51°27' E 003°44'0 0.0
2014-Oct-15 19:33N 51°27' E 003°44'0 0.1
2014-Oct-15 18:33N 51°27' E 003°44'4 4.1
2014-Oct-15 17:33N 51°23' E 003°43'5 5.1
2014-Oct-15 16:34N 51°20' E 003°49'6 6.3
2014-Oct-15 15:33N 51°14' E 003°48'5 5.0
2014-Oct-15 14:33N 51°09' E 003°48'0 0.0
2014-Oct-15 13:33N 51°09' E 003°48'0 0.0
2014-Oct-15 12:34N 51°09' E 003°48'0 0.1
2014-Oct-15 11:34N 51°09' E 003°48'0 0.0
2014-Oct-15 10:33N 51°09' E 003°48'0 0.1
2014-Oct-15 09:33N 51°09' E 003°48'0 0.0
2014-Oct-15 08:21N 51°09' E 003°48'0 0.0
2014-Oct-15 07:29N 51°09' E 003°48'0 0.2
2014-Oct-15 06:33N 51°09' E 003°48'  

Dump ship's entire track history